sensor_id;sensor_type;location;lat;lon;timestamp;P1;durP1;ratioP1;P2;durP2;ratioP2
43801;SDS011;29429;51.074;13.764;2022-12-18T00:01:31;41.42;;;16.33;;
43801;SDS011;29429;51.074;13.764;2022-12-18T00:04:02;43.22;;;17.83;;
43801;SDS011;29429;51.074;13.764;2022-12-18T00:06:32;46.53;;;16.98;;
43801;SDS011;29429;51.074;13.764;2022-12-18T00:09:02;44.47;;;17.40;;
43801;SDS011;29429;51.074;13.764;2022-12-18T00:11:30;42.58;;;16.80;;
43801;SDS011;29429;51.074;13.764;2022-12-18T00:13:58;45.13;;;17.77;;
43801;SDS011;29429;51.074;13.764;2022-12-18T00:16:26;42.33;;;17.08;;
43801;SDS011;29429;51.074;13.764;2022-12-18T00:18:57;47.08;;;18.00;;
43801;SDS011;29429;51.074;13.764;2022-12-18T00:21:26;49.25;;;18.00;;
43801;SDS011;29429;51.074;13.764;2022-12-18T00:23:56;39.70;;;16.30;;
43801;SDS011;29429;51.074;13.764;2022-12-18T00:26:27;46.20;;;17.73;;
43801;SDS011;29429;51.074;13.764;2022-12-18T00:29:01;38.28;;;16.45;;
43801;SDS011;29429;51.074;13.764;2022-12-18T00:31:36;47.25;;;18.15;;
43801;SDS011;29429;51.074;13.764;2022-12-18T00:34:04;48.38;;;19.25;;
43801;SDS011;29429;51.074;13.764;2022-12-18T00:36:32;49.35;;;18.98;;
43801;SDS011;29429;51.074;13.764;2022-12-18T00:39:01;50.90;;;18.45;;
43801;SDS011;29429;51.074;13.764;2022-12-18T00:41:31;47.30;;;18.05;;
43801;SDS011;29429;51.074;13.764;2022-12-18T00:44:17;43.55;;;18.17;;
43801;SDS011;29429;51.074;13.764;2022-12-18T00:46:46;47.53;;;17.55;;
43801;SDS011;29429;51.074;13.764;2022-12-18T00:49:15;44.97;;;18.10;;
43801;SDS011;29429;51.074;13.764;2022-12-18T00:51:47;44.53;;;18.00;;
43801;SDS011;29429;51.074;13.764;2022-12-18T00:54:15;43.35;;;17.48;;
43801;SDS011;29429;51.074;13.764;2022-12-18T00:56:43;49.67;;;18.77;;
43801;SDS011;29429;51.074;13.764;2022-12-18T00:59:15;44.45;;;17.45;;
43801;SDS011;29429;51.074;13.764;2022-12-18T01:01:44;50.10;;;17.77;;
43801;SDS011;29429;51.074;13.764;2022-12-18T01:04:12;43.13;;;17.35;;
43801;SDS011;29429;51.074;13.764;2022-12-18T01:06:40;40.30;;;16.20;;
43801;SDS011;29429;51.074;13.764;2022-12-18T01:09:07;52.63;;;19.15;;
43801;SDS011;29429;51.074;13.764;2022-12-18T01:11:36;43.90;;;17.10;;
43801;SDS011;29429;51.074;13.764;2022-12-18T01:14:03;45.97;;;16.88;;
43801;SDS011;29429;51.074;13.764;2022-12-18T01:16:30;48.90;;;18.63;;
43801;SDS011;29429;51.074;13.764;2022-12-18T01:18:57;46.42;;;19.08;;
43801;SDS011;29429;51.074;13.764;2022-12-18T01:21:26;45.45;;;18.00;;
43801;SDS011;29429;51.074;13.764;2022-12-18T01:23:53;48.60;;;18.48;;
43801;SDS011;29429;51.074;13.764;2022-12-18T01:26:23;54.72;;;19.08;;
43801;SDS011;29429;51.074;13.764;2022-12-18T01:28:53;46.05;;;18.48;;
43801;SDS011;29429;51.074;13.764;2022-12-18T01:31:26;52.45;;;18.85;;
43801;SDS011;29429;51.074;13.764;2022-12-18T01:33:56;43.92;;;17.95;;
43801;SDS011;29429;51.074;13.764;2022-12-18T01:36:27;51.15;;;19.73;;
43801;SDS011;29429;51.074;13.764;2022-12-18T01:39:03;49.80;;;18.90;;
43801;SDS011;29429;51.074;13.764;2022-12-18T01:41:41;46.47;;;17.60;;
43801;SDS011;29429;51.074;13.764;2022-12-18T01:50:25;46.05;;;17.95;;
43801;SDS011;29429;51.074;13.764;2022-12-18T01:52:58;47.22;;;17.33;;
43801;SDS011;29429;51.074;13.764;2022-12-18T01:55:41;46.83;;;17.95;;
43801;SDS011;29429;51.074;13.764;2022-12-18T01:58:14;41.13;;;16.25;;
43801;SDS011;29429;51.074;13.764;2022-12-18T02:00:42;45.10;;;17.83;;
43801;SDS011;29429;51.074;13.764;2022-12-18T02:03:10;43.95;;;16.92;;
43801;SDS011;29429;51.074;13.764;2022-12-18T02:14:42;45.75;;;16.30;;
43801;SDS011;29429;51.074;13.764;2022-12-18T02:17:38;43.22;;;17.48;;
43801;SDS011;29429;51.074;13.764;2022-12-18T02:20:43;43.03;;;16.92;;
43801;SDS011;29429;51.074;13.764;2022-12-18T02:29:13;45.67;;;16.45;;
43801;SDS011;29429;51.074;13.764;2022-12-18T02:31:57;45.80;;;17.25;;
43801;SDS011;29429;51.074;13.764;2022-12-18T02:34:26;45.67;;;16.15;;
43801;SDS011;29429;51.074;13.764;2022-12-18T02:36:59;42.83;;;17.92;;
43801;SDS011;29429;51.074;13.764;2022-12-18T02:39:34;43.78;;;18.15;;
43801;SDS011;29429;51.074;13.764;2022-12-18T02:42:05;45.65;;;17.35;;
43801;SDS011;29429;51.074;13.764;2022-12-18T02:44:35;49.75;;;18.30;;
43801;SDS011;29429;51.074;13.764;2022-12-18T02:47:12;41.33;;;15.70;;
43801;SDS011;29429;51.074;13.764;2022-12-18T02:49:55;39.08;;;15.50;;
43801;SDS011;29429;51.074;13.764;2022-12-18T02:52:35;46.53;;;16.30;;
43801;SDS011;29429;51.074;13.764;2022-12-18T02:59:02;46.53;;;17.10;;
43801;SDS011;29429;51.074;13.764;2022-12-18T03:04:42;39.55;;;17.13;;
43801;SDS011;29429;51.074;13.764;2022-12-18T03:07:38;42.03;;;16.40;;
43801;SDS011;29429;51.074;13.764;2022-12-18T03:10:17;43.35;;;16.05;;
43801;SDS011;29429;51.074;13.764;2022-12-18T03:12:59;40.17;;;16.15;;
43801;SDS011;29429;51.074;13.764;2022-12-18T03:15:37;43.75;;;15.80;;
43801;SDS011;29429;51.074;13.764;2022-12-18T03:20:48;44.53;;;16.10;;
43801;SDS011;29429;51.074;13.764;2022-12-18T03:23:24;48.08;;;16.38;;
43801;SDS011;29429;51.074;13.764;2022-12-18T03:25:58;38.40;;;14.93;;
43801;SDS011;29429;51.074;13.764;2022-12-18T03:28:38;44.17;;;15.65;;
43801;SDS011;29429;51.074;13.764;2022-12-18T03:31:13;42.05;;;16.00;;
43801;SDS011;29429;51.074;13.764;2022-12-18T03:33:47;44.80;;;16.40;;
43801;SDS011;29429;51.074;13.764;2022-12-18T03:36:30;39.83;;;16.00;;
43801;SDS011;29429;51.074;13.764;2022-12-18T03:38:59;40.42;;;16.10;;
43801;SDS011;29429;51.074;13.764;2022-12-18T03:41:34;40.80;;;15.55;;
43801;SDS011;29429;51.074;13.764;2022-12-18T03:44:39;44.05;;;16.15;;
43801;SDS011;29429;51.074;13.764;2022-12-18T03:52:48;43.13;;;16.67;;
43801;SDS011;29429;51.074;13.764;2022-12-18T03:55:23;35.85;;;15.73;;
43801;SDS011;29429;51.074;13.764;2022-12-18T03:57:59;41.22;;;13.52;;
43801;SDS011;29429;51.074;13.764;2022-12-18T04:00:41;40.08;;;14.90;;
43801;SDS011;29429;51.074;13.764;2022-12-18T04:03:10;40.88;;;15.93;;
43801;SDS011;29429;51.074;13.764;2022-12-18T04:05:44;41.28;;;15.90;;
43801;SDS011;29429;51.074;13.764;2022-12-18T04:08:16;38.17;;;14.77;;
43801;SDS011;29429;51.074;13.764;2022-12-18T04:10:53;40.00;;;14.93;;
43801;SDS011;29429;51.074;13.764;2022-12-18T04:13:21;33.58;;;14.15;;
43801;SDS011;29429;51.074;13.764;2022-12-18T04:15:56;36.90;;;14.05;;
43801;SDS011;29429;51.074;13.764;2022-12-18T04:18:24;36.72;;;14.75;;
43801;SDS011;29429;51.074;13.764;2022-12-18T04:20:52;39.35;;;14.88;;
43801;SDS011;29429;51.074;13.764;2022-12-18T04:23:19;37.35;;;15.00;;
43801;SDS011;29429;51.074;13.764;2022-12-18T04:25:47;41.45;;;14.43;;
43801;SDS011;29429;51.074;13.764;2022-12-18T04:28:22;39.88;;;13.38;;
43801;SDS011;29429;51.074;13.764;2022-12-18T04:30:49;32.10;;;13.48;;
43801;SDS011;29429;51.074;13.764;2022-12-18T04:33:16;37.63;;;13.65;;
43801;SDS011;29429;51.074;13.764;2022-12-18T04:35:44;41.78;;;15.07;;
43801;SDS011;29429;51.074;13.764;2022-12-18T04:38:12;38.40;;;14.18;;
43801;SDS011;29429;51.074;13.764;2022-12-18T04:40:39;40.45;;;14.15;;
43801;SDS011;29429;51.074;13.764;2022-12-18T04:43:15;33.72;;;12.80;;
43801;SDS011;29429;51.074;13.764;2022-12-18T04:45:42;39.47;;;14.50;;
43801;SDS011;29429;51.074;13.764;2022-12-18T04:48:09;37.50;;;13.00;;
43801;SDS011;29429;51.074;13.764;2022-12-18T04:50:36;35.00;;;14.18;;
43801;SDS011;29429;51.074;13.764;2022-12-18T04:53:03;34.58;;;13.05;;
43801;SDS011;29429;51.074;13.764;2022-12-18T04:55:30;33.65;;;12.75;;
43801;SDS011;29429;51.074;13.764;2022-12-18T04:57:57;35.40;;;14.23;;
43801;SDS011;29429;51.074;13.764;2022-12-18T05:00:25;37.90;;;12.57;;
43801;SDS011;29429;51.074;13.764;2022-12-18T05:02:52;32.33;;;13.25;;
43801;SDS011;29429;51.074;13.764;2022-12-18T05:05:19;32.95;;;12.13;;
43801;SDS011;29429;51.074;13.764;2022-12-18T05:07:46;30.58;;;12.27;;
43801;SDS011;29429;51.074;13.764;2022-12-18T05:10:13;36.72;;;13.02;;
43801;SDS011;29429;51.074;13.764;2022-12-18T05:12:40;30.45;;;12.70;;
43801;SDS011;29429;51.074;13.764;2022-12-18T05:17:57;29.58;;;11.35;;
43801;SDS011;29429;51.074;13.764;2022-12-18T05:20:26;39.20;;;12.35;;
43801;SDS011;29429;51.074;13.764;2022-12-18T05:22:54;31.75;;;12.40;;
43801;SDS011;29429;51.074;13.764;2022-12-18T05:25:22;27.92;;;11.48;;
43801;SDS011;29429;51.074;13.764;2022-12-18T05:27:50;33.47;;;12.68;;
43801;SDS011;29429;51.074;13.764;2022-12-18T05:30:17;33.95;;;13.88;;
43801;SDS011;29429;51.074;13.764;2022-12-18T05:32:44;30.38;;;12.95;;
43801;SDS011;29429;51.074;13.764;2022-12-18T05:35:11;38.63;;;14.00;;
43801;SDS011;29429;51.074;13.764;2022-12-18T05:37:38;32.17;;;12.57;;
43801;SDS011;29429;51.074;13.764;2022-12-18T05:40:08;36.88;;;12.00;;
43801;SDS011;29429;51.074;13.764;2022-12-18T05:42:36;33.88;;;12.95;;
43801;SDS011;29429;51.074;13.764;2022-12-18T05:45:04;37.45;;;13.20;;
43801;SDS011;29429;51.074;13.764;2022-12-18T05:47:32;33.42;;;12.52;;
43801;SDS011;29429;51.074;13.764;2022-12-18T05:49:59;38.10;;;12.50;;
43801;SDS011;29429;51.074;13.764;2022-12-18T05:52:26;33.03;;;12.10;;
43801;SDS011;29429;51.074;13.764;2022-12-18T05:54:53;34.70;;;13.63;;
43801;SDS011;29429;51.074;13.764;2022-12-18T05:57:20;29.30;;;11.75;;
43801;SDS011;29429;51.074;13.764;2022-12-18T05:59:47;32.83;;;12.30;;
43801;SDS011;29429;51.074;13.764;2022-12-18T06:02:14;33.28;;;12.25;;
43801;SDS011;29429;51.074;13.764;2022-12-18T06:04:41;34.97;;;11.30;;
43801;SDS011;29429;51.074;13.764;2022-12-18T06:07:08;32.22;;;10.93;;
43801;SDS011;29429;51.074;13.764;2022-12-18T06:09:35;27.58;;;10.60;;
43801;SDS011;29429;51.074;13.764;2022-12-18T06:12:02;30.80;;;11.95;;
43801;SDS011;29429;51.074;13.764;2022-12-18T06:14:30;29.20;;;10.85;;
43801;SDS011;29429;51.074;13.764;2022-12-18T06:16:56;33.10;;;11.88;;
43801;SDS011;29429;51.074;13.764;2022-12-18T06:19:23;32.13;;;11.18;;
43801;SDS011;29429;51.074;13.764;2022-12-18T06:21:50;25.70;;;10.82;;
43801;SDS011;29429;51.074;13.764;2022-12-18T06:24:18;30.35;;;11.48;;
43801;SDS011;29429;51.074;13.764;2022-12-18T06:26:45;32.42;;;11.57;;
43801;SDS011;29429;51.074;13.764;2022-12-18T06:29:12;33.42;;;11.32;;
43801;SDS011;29429;51.074;13.764;2022-12-18T06:31:39;27.08;;;10.07;;
43801;SDS011;29429;51.074;13.764;2022-12-18T06:34:06;29.52;;;11.55;;
43801;SDS011;29429;51.074;13.764;2022-12-18T06:36:33;28.13;;;11.32;;
43801;SDS011;29429;51.074;13.764;2022-12-18T06:39:00;33.55;;;10.98;;
43801;SDS011;29429;51.074;13.764;2022-12-18T06:41:27;30.55;;;10.57;;
43801;SDS011;29429;51.074;13.764;2022-12-18T06:43:54;29.33;;;11.55;;
43801;SDS011;29429;51.074;13.764;2022-12-18T06:46:25;21.38;;;9.55;;
43801;SDS011;29429;51.074;13.764;2022-12-18T06:48:53;28.40;;;10.75;;
43801;SDS011;29429;51.074;13.764;2022-12-18T06:51:21;28.08;;;11.90;;
43801;SDS011;29429;51.074;13.764;2022-12-18T06:53:49;28.17;;;10.50;;
43801;SDS011;29429;51.074;13.764;2022-12-18T06:56:16;27.33;;;10.43;;
43801;SDS011;29429;51.074;13.764;2022-12-18T06:58:43;31.08;;;10.32;;
43801;SDS011;29429;51.074;13.764;2022-12-18T07:01:11;24.70;;;10.88;;
43801;SDS011;29429;51.074;13.764;2022-12-18T07:03:40;26.40;;;9.80;;
43801;SDS011;29429;51.074;13.764;2022-12-18T07:06:13;24.42;;;9.65;;
43801;SDS011;29429;51.074;13.764;2022-12-18T07:08:43;22.80;;;8.85;;
43801;SDS011;29429;51.074;13.764;2022-12-18T07:11:12;26.20;;;9.45;;
43801;SDS011;29429;51.074;13.764;2022-12-18T07:13:39;30.98;;;11.13;;
43801;SDS011;29429;51.074;13.764;2022-12-18T07:16:08;26.02;;;9.23;;
43801;SDS011;29429;51.074;13.764;2022-12-18T07:18:47;25.55;;;9.30;;
43801;SDS011;29429;51.074;13.764;2022-12-18T07:21:16;28.83;;;10.32;;
43801;SDS011;29429;51.074;13.764;2022-12-18T07:23:45;29.55;;;9.90;;
43801;SDS011;29429;51.074;13.764;2022-12-18T07:26:15;27.92;;;10.27;;
43801;SDS011;29429;51.074;13.764;2022-12-18T07:28:45;23.95;;;9.38;;
43801;SDS011;29429;51.074;13.764;2022-12-18T07:31:14;29.08;;;10.93;;
43801;SDS011;29429;51.074;13.764;2022-12-18T07:33:47;28.20;;;10.13;;
43801;SDS011;29429;51.074;13.764;2022-12-18T07:36:14;23.95;;;9.27;;
43801;SDS011;29429;51.074;13.764;2022-12-18T07:38:42;26.23;;;10.15;;
43801;SDS011;29429;51.074;13.764;2022-12-18T07:41:09;28.10;;;10.75;;
43801;SDS011;29429;51.074;13.764;2022-12-18T07:43:39;24.23;;;9.45;;
43801;SDS011;29429;51.074;13.764;2022-12-18T07:46:08;25.00;;;9.45;;
43801;SDS011;29429;51.074;13.764;2022-12-18T07:48:39;27.65;;;10.05;;
43801;SDS011;29429;51.074;13.764;2022-12-18T07:51:08;29.10;;;13.35;;
43801;SDS011;29429;51.074;13.764;2022-12-18T07:53:35;38.38;;;14.70;;
43801;SDS011;29429;51.074;13.764;2022-12-18T07:56:04;40.80;;;23.90;;
43801;SDS011;29429;51.074;13.764;2022-12-18T07:58:55;27.38;;;12.82;;
43801;SDS011;29429;51.074;13.764;2022-12-18T08:01:24;28.17;;;11.13;;
43801;SDS011;29429;51.074;13.764;2022-12-18T08:03:52;24.30;;;11.23;;
43801;SDS011;29429;51.074;13.764;2022-12-18T08:06:19;34.97;;;15.65;;
43801;SDS011;29429;51.074;13.764;2022-12-18T08:08:52;30.20;;;15.20;;
43801;SDS011;29429;51.074;13.764;2022-12-18T08:11:21;35.00;;;13.80;;
43801;SDS011;29429;51.074;13.764;2022-12-18T08:13:51;33.42;;;13.32;;
43801;SDS011;29429;51.074;13.764;2022-12-18T08:16:20;167.70;;;50.17;;
43801;SDS011;29429;51.074;13.764;2022-12-18T08:18:48;180.25;;;60.97;;
43801;SDS011;29429;51.074;13.764;2022-12-18T08:21:19;61.08;;;23.13;;
43801;SDS011;29429;51.074;13.764;2022-12-18T08:23:53;39.53;;;13.93;;
43801;SDS011;29429;51.074;13.764;2022-12-18T08:26:22;51.05;;;19.58;;
43801;SDS011;29429;51.074;13.764;2022-12-18T08:28:51;43.35;;;16.15;;
43801;SDS011;29429;51.074;13.764;2022-12-18T08:31:22;58.40;;;18.60;;
43801;SDS011;29429;51.074;13.764;2022-12-18T08:33:51;76.97;;;22.08;;
43801;SDS011;29429;51.074;13.764;2022-12-18T08:36:20;45.53;;;17.45;;
43801;SDS011;29429;51.074;13.764;2022-12-18T08:38:49;35.88;;;15.38;;
43801;SDS011;29429;51.074;13.764;2022-12-18T08:41:17;35.92;;;15.48;;
43801;SDS011;29429;51.074;13.764;2022-12-18T08:43:45;41.13;;;15.18;;
43801;SDS011;29429;51.074;13.764;2022-12-18T08:46:35;41.80;;;15.05;;
43801;SDS011;29429;51.074;13.764;2022-12-18T08:49:08;38.65;;;13.73;;
43801;SDS011;29429;51.074;13.764;2022-12-18T08:51:37;36.28;;;14.32;;
43801;SDS011;29429;51.074;13.764;2022-12-18T08:54:05;34.30;;;14.23;;
43801;SDS011;29429;51.074;13.764;2022-12-18T08:56:33;35.00;;;14.68;;
43801;SDS011;29429;51.074;13.764;2022-12-18T08:59:00;34.95;;;14.95;;
43801;SDS011;29429;51.074;13.764;2022-12-18T09:01:28;39.72;;;15.68;;
43801;SDS011;29429;51.074;13.764;2022-12-18T09:03:55;40.67;;;15.23;;
43801;SDS011;29429;51.074;13.764;2022-12-18T09:06:23;39.85;;;15.48;;
43801;SDS011;29429;51.074;13.764;2022-12-18T09:08:50;46.70;;;18.15;;
43801;SDS011;29429;51.074;13.764;2022-12-18T09:11:24;39.72;;;17.35;;
43801;SDS011;29429;51.074;13.764;2022-12-18T09:13:54;40.90;;;17.40;;
43801;SDS011;29429;51.074;13.764;2022-12-18T09:16:22;45.50;;;19.70;;
43801;SDS011;29429;51.074;13.764;2022-12-18T09:18:58;52.63;;;20.23;;
43801;SDS011;29429;51.074;13.764;2022-12-18T09:21:30;55.70;;;23.65;;
43801;SDS011;29429;51.074;13.764;2022-12-18T09:24:03;52.55;;;21.33;;
43801;SDS011;29429;51.074;13.764;2022-12-18T09:26:34;72.03;;;32.15;;
43801;SDS011;29429;51.074;13.764;2022-12-18T09:29:02;77.10;;;33.80;;
43801;SDS011;29429;51.074;13.764;2022-12-18T09:31:29;73.10;;;32.28;;
43801;SDS011;29429;51.074;13.764;2022-12-18T09:33:56;66.88;;;31.10;;
43801;SDS011;29429;51.074;13.764;2022-12-18T09:36:23;64.70;;;29.52;;
43801;SDS011;29429;51.074;13.764;2022-12-18T09:38:51;71.60;;;30.73;;
43801;SDS011;29429;51.074;13.764;2022-12-18T09:41:28;57.60;;;25.50;;
43801;SDS011;29429;51.074;13.764;2022-12-18T09:44:26;52.33;;;23.55;;
43801;SDS011;29429;51.074;13.764;2022-12-18T09:49:50;59.20;;;21.13;;
43801;SDS011;29429;51.074;13.764;2022-12-18T09:52:25;49.75;;;18.98;;
43801;SDS011;29429;51.074;13.764;2022-12-18T09:55:05;51.00;;;19.15;;
43801;SDS011;29429;51.074;13.764;2022-12-18T10:01:12;53.08;;;18.95;;
43801;SDS011;29429;51.074;13.764;2022-12-18T10:03:49;52.30;;;19.45;;
43801;SDS011;29429;51.074;13.764;2022-12-18T10:06:20;48.22;;;19.35;;
43801;SDS011;29429;51.074;13.764;2022-12-18T10:15:07;43.38;;;17.17;;
43801;SDS011;29429;51.074;13.764;2022-12-18T10:18:14;43.60;;;16.90;;
43801;SDS011;29429;51.074;13.764;2022-12-18T10:20:49;50.25;;;19.17;;
43801;SDS011;29429;51.074;13.764;2022-12-18T10:26:42;36.30;;;17.00;;
43801;SDS011;29429;51.074;13.764;2022-12-18T10:29:11;39.72;;;16.85;;
43801;SDS011;29429;51.074;13.764;2022-12-18T10:31:40;36.55;;;15.88;;
43801;SDS011;29429;51.074;13.764;2022-12-18T10:34:14;46.55;;;19.60;;
43801;SDS011;29429;51.074;13.764;2022-12-18T10:36:41;43.78;;;17.95;;
43801;SDS011;29429;51.074;13.764;2022-12-18T10:39:16;39.40;;;16.90;;
43801;SDS011;29429;51.074;13.764;2022-12-18T10:41:57;43.50;;;16.48;;
43801;SDS011;29429;51.074;13.764;2022-12-18T10:44:47;47.58;;;16.88;;
43801;SDS011;29429;51.074;13.764;2022-12-18T10:47:44;42.28;;;16.35;;
43801;SDS011;29429;51.074;13.764;2022-12-18T10:50:22;38.78;;;16.00;;
43801;SDS011;29429;51.074;13.764;2022-12-18T10:53:20;42.22;;;17.33;;
43801;SDS011;29429;51.074;13.764;2022-12-18T10:55:54;40.63;;;17.43;;
43801;SDS011;29429;51.074;13.764;2022-12-18T10:58:35;36.70;;;16.17;;
43801;SDS011;29429;51.074;13.764;2022-12-18T11:03:44;44.97;;;18.38;;
43801;SDS011;29429;51.074;13.764;2022-12-18T11:06:28;44.45;;;17.58;;
43801;SDS011;29429;51.074;13.764;2022-12-18T11:09:00;38.15;;;17.23;;
43801;SDS011;29429;51.074;13.764;2022-12-18T11:11:55;43.42;;;17.02;;
43801;SDS011;29429;51.074;13.764;2022-12-18T11:14:29;44.83;;;17.48;;
43801;SDS011;29429;51.074;13.764;2022-12-18T11:17:19;45.97;;;19.52;;
43801;SDS011;29429;51.074;13.764;2022-12-18T11:20:02;41.78;;;17.67;;
43801;SDS011;29429;51.074;13.764;2022-12-18T11:22:54;41.45;;;17.85;;
43801;SDS011;29429;51.074;13.764;2022-12-18T11:25:25;44.25;;;18.23;;
43801;SDS011;29429;51.074;13.764;2022-12-18T11:28:01;40.10;;;17.53;;
43801;SDS011;29429;51.074;13.764;2022-12-18T11:31:08;45.50;;;17.75;;
43801;SDS011;29429;51.074;13.764;2022-12-18T11:33:46;53.28;;;18.63;;
43801;SDS011;29429;51.074;13.764;2022-12-18T11:36:45;44.85;;;18.25;;
43801;SDS011;29429;51.074;13.764;2022-12-18T11:39:24;41.55;;;18.17;;
43801;SDS011;29429;51.074;13.764;2022-12-18T11:42:14;43.92;;;17.55;;
43801;SDS011;29429;51.074;13.764;2022-12-18T11:47:59;47.97;;;19.30;;
43801;SDS011;29429;51.074;13.764;2022-12-18T11:50:54;40.67;;;18.55;;
43801;SDS011;29429;51.074;13.764;2022-12-18T11:53:25;45.28;;;18.45;;
43801;SDS011;29429;51.074;13.764;2022-12-18T12:04:32;45.03;;;17.65;;
43801;SDS011;29429;51.074;13.764;2022-12-18T12:13:15;38.05;;;16.17;;
43801;SDS011;29429;51.074;13.764;2022-12-18T12:21:49;41.60;;;16.50;;
43801;SDS011;29429;51.074;13.764;2022-12-18T12:33:12;36.25;;;15.23;;
43801;SDS011;29429;51.074;13.764;2022-12-18T12:36:05;36.40;;;15.85;;
43801;SDS011;29429;51.074;13.764;2022-12-18T12:44:47;40.95;;;15.38;;
43801;SDS011;29429;51.074;13.764;2022-12-18T12:47:25;35.67;;;14.95;;
43801;SDS011;29429;51.074;13.764;2022-12-18T12:49:59;40.20;;;16.05;;
43801;SDS011;29429;51.074;13.764;2022-12-18T12:52:35;37.35;;;14.85;;
43801;SDS011;29429;51.074;13.764;2022-12-18T12:55:12;36.10;;;14.50;;
43801;SDS011;29429;51.074;13.764;2022-12-18T12:57:56;33.47;;;15.00;;
43801;SDS011;29429;51.074;13.764;2022-12-18T13:00:41;39.20;;;16.02;;
43801;SDS011;29429;51.074;13.764;2022-12-18T13:04:23;36.58;;;15.70;;
43801;SDS011;29429;51.074;13.764;2022-12-18T13:09:17;33.70;;;14.60;;
43801;SDS011;29429;51.074;13.764;2022-12-18T13:11:46;37.03;;;16.40;;
43801;SDS011;29429;51.074;13.764;2022-12-18T13:14:33;41.22;;;16.33;;
43801;SDS011;29429;51.074;13.764;2022-12-18T13:17:20;42.15;;;15.98;;
43801;SDS011;29429;51.074;13.764;2022-12-18T13:20:09;36.10;;;14.52;;
43801;SDS011;29429;51.074;13.764;2022-12-18T13:28:09;39.92;;;15.73;;
43801;SDS011;29429;51.074;13.764;2022-12-18T13:38:39;38.92;;;16.10;;
43801;SDS011;29429;51.074;13.764;2022-12-18T13:43:52;42.67;;;15.68;;
43801;SDS011;29429;51.074;13.764;2022-12-18T13:46:42;41.45;;;15.93;;
43801;SDS011;29429;51.074;13.764;2022-12-18T13:51:55;40.00;;;16.50;;
43801;SDS011;29429;51.074;13.764;2022-12-18T13:54:33;37.55;;;15.10;;
43801;SDS011;29429;51.074;13.764;2022-12-18T13:57:12;35.83;;;15.30;;
43801;SDS011;29429;51.074;13.764;2022-12-18T13:59:54;35.05;;;15.25;;
43801;SDS011;29429;51.074;13.764;2022-12-18T14:02:25;34.72;;;14.38;;
43801;SDS011;29429;51.074;13.764;2022-12-18T14:04:55;32.00;;;13.73;;
43801;SDS011;29429;51.074;13.764;2022-12-18T14:07:23;33.95;;;14.43;;
43801;SDS011;29429;51.074;13.764;2022-12-18T14:09:56;38.17;;;14.18;;
43801;SDS011;29429;51.074;13.764;2022-12-18T14:12:48;31.98;;;12.32;;
43801;SDS011;29429;51.074;13.764;2022-12-18T14:17:54;33.30;;;13.73;;
43801;SDS011;29429;51.074;13.764;2022-12-18T14:20:26;36.70;;;14.70;;
43801;SDS011;29429;51.074;13.764;2022-12-18T14:22:57;33.95;;;12.73;;
43801;SDS011;29429;51.074;13.764;2022-12-18T14:25:27;32.67;;;12.57;;
43801;SDS011;29429;51.074;13.764;2022-12-18T14:30:40;34.13;;;13.80;;
43801;SDS011;29429;51.074;13.764;2022-12-18T14:33:11;30.55;;;13.32;;
43801;SDS011;29429;51.074;13.764;2022-12-18T14:35:41;35.80;;;14.65;;
43801;SDS011;29429;51.074;13.764;2022-12-18T14:38:20;33.38;;;13.80;;
43801;SDS011;29429;51.074;13.764;2022-12-18T14:41:33;34.08;;;13.20;;
43801;SDS011;29429;51.074;13.764;2022-12-18T14:43:45;32.22;;;12.73;;
43801;SDS011;29429;51.074;13.764;2022-12-18T14:48:56;33.95;;;13.27;;
43801;SDS011;29429;51.074;13.764;2022-12-18T14:51:24;29.70;;;13.18;;
43801;SDS011;29429;51.074;13.764;2022-12-18T14:53:55;32.33;;;13.18;;
43801;SDS011;29429;51.074;13.764;2022-12-18T14:56:25;37.05;;;15.25;;
43801;SDS011;29429;51.074;13.764;2022-12-18T14:58:56;35.13;;;13.60;;
43801;SDS011;29429;51.074;13.764;2022-12-18T15:07:05;35.85;;;13.98;;
43801;SDS011;29429;51.074;13.764;2022-12-18T15:09:44;38.20;;;15.65;;
43801;SDS011;29429;51.074;13.764;2022-12-18T15:23:35;32.90;;;13.85;;
43801;SDS011;29429;51.074;13.764;2022-12-18T15:26:15;38.92;;;14.82;;
43801;SDS011;29429;51.074;13.764;2022-12-18T15:28:46;39.25;;;15.73;;
43801;SDS011;29429;51.074;13.764;2022-12-18T15:31:30;33.28;;;13.88;;
43801;SDS011;29429;51.074;13.764;2022-12-18T15:36:34;40.75;;;15.35;;
43801;SDS011;29429;51.074;13.764;2022-12-18T15:39:02;39.65;;;15.60;;
43801;SDS011;29429;51.074;13.764;2022-12-18T15:41:35;41.13;;;16.10;;
43801;SDS011;29429;51.074;13.764;2022-12-18T15:44:03;43.95;;;15.63;;
43801;SDS011;29429;51.074;13.764;2022-12-18T15:46:51;40.58;;;15.55;;
43801;SDS011;29429;51.074;13.764;2022-12-18T15:49:18;33.97;;;14.52;;
43801;SDS011;29429;51.074;13.764;2022-12-18T15:51:45;37.08;;;15.10;;
43801;SDS011;29429;51.074;13.764;2022-12-18T15:54:26;38.08;;;16.20;;
43801;SDS011;29429;51.074;13.764;2022-12-18T15:57:11;40.70;;;16.55;;
43801;SDS011;29429;51.074;13.764;2022-12-18T15:59:53;39.42;;;14.52;;
43801;SDS011;29429;51.074;13.764;2022-12-18T16:02:24;46.38;;;15.60;;
43801;SDS011;29429;51.074;13.764;2022-12-18T16:04:52;37.97;;;14.98;;
43801;SDS011;29429;51.074;13.764;2022-12-18T16:07:20;40.95;;;15.93;;
43801;SDS011;29429;51.074;13.764;2022-12-18T16:09:51;39.10;;;15.23;;
43801;SDS011;29429;51.074;13.764;2022-12-18T16:12:22;39.55;;;16.42;;
43801;SDS011;29429;51.074;13.764;2022-12-18T16:14:50;35.40;;;14.20;;
43801;SDS011;29429;51.074;13.764;2022-12-18T16:17:17;40.53;;;15.60;;
43801;SDS011;29429;51.074;13.764;2022-12-18T16:19:44;37.50;;;15.65;;
43801;SDS011;29429;51.074;13.764;2022-12-18T16:22:19;37.20;;;15.60;;
43801;SDS011;29429;51.074;13.764;2022-12-18T16:24:50;38.67;;;14.90;;
43801;SDS011;29429;51.074;13.764;2022-12-18T16:27:19;36.97;;;14.82;;
43801;SDS011;29429;51.074;13.764;2022-12-18T16:29:48;40.65;;;14.60;;
43801;SDS011;29429;51.074;13.764;2022-12-18T16:32:19;41.70;;;16.48;;
43801;SDS011;29429;51.074;13.764;2022-12-18T16:34:48;40.22;;;16.30;;
43801;SDS011;29429;51.074;13.764;2022-12-18T16:37:15;39.15;;;15.63;;
43801;SDS011;29429;51.074;13.764;2022-12-18T16:39:42;42.30;;;17.02;;
43801;SDS011;29429;51.074;13.764;2022-12-18T16:42:14;45.90;;;17.17;;
43801;SDS011;29429;51.074;13.764;2022-12-18T16:44:45;42.65;;;16.15;;
43801;SDS011;29429;51.074;13.764;2022-12-18T16:47:15;42.25;;;15.80;;
43801;SDS011;29429;51.074;13.764;2022-12-18T16:49:43;40.38;;;15.80;;
43801;SDS011;29429;51.074;13.764;2022-12-18T16:52:11;31.30;;;13.73;;
43801;SDS011;29429;51.074;13.764;2022-12-18T16:54:38;43.78;;;16.48;;
43801;SDS011;29429;51.074;13.764;2022-12-18T16:57:06;40.17;;;16.42;;
43801;SDS011;29429;51.074;13.764;2022-12-18T16:59:35;39.72;;;15.20;;
43801;SDS011;29429;51.074;13.764;2022-12-18T17:02:02;40.38;;;14.57;;
43801;SDS011;29429;51.074;13.764;2022-12-18T17:04:29;33.60;;;15.43;;
43801;SDS011;29429;51.074;13.764;2022-12-18T17:06:56;36.80;;;14.23;;